Track Краснояров Евгений

Time Latitude Longitude Accuracy (66% radius in meters) Altitude (meters) Speed (km/hour) Bearing (degrees) Battery (%) GPS flag
11:17:59 56.292399 44.023694 76 161.60000610352 0 0 47 1 delete
11:17:38 56.292399 44.023694 17 161.60000610352 0 0 47 1 delete
11:17:27 56.292399 44.023694 17 161.60000610352 0 0 47 1 delete
11:17:15 56.292399 44.023694 19 161.60000610352 0 0 47 1 delete
11:17:04 56.292399 44.023694 18 161.60000610352 0 0 47 1 delete
11:16:52 56.292399 44.023695 20 161.5 0 0 47 1 delete
11:16:40 56.292399 44.023695 11 161.5 0 0 47 1 delete
11:16:29 56.292398 44.023695 10 161.5 0 0 47 1 delete
11:16:17 56.292398 44.023695 11 161.5 0 0 47 1 delete
11:16:06 56.292398 44.023695 21 161.5 0 0 47 1 delete
11:15:07 56.292398 44.023695 31 161.5 0 0 47 1 delete
11:14:55 56.292398 44.023695 27 161.5 0 0 47 1 delete
11:14:44 56.292398 44.023695 20 161.5 0 0 47 1 delete
11:14:32 56.292398 44.023695 20 161.5 0 0 47 1 delete
11:14:11 56.292398 44.023695 25 161.5 0 0 47 1 delete
11:14:00 56.292397 44.023696 25 161.60000610352 0 0 47 1 delete
11:13:48 56.292397 44.023696 28 161.60000610352 0 0 47 1 delete
11:12:51 56.292397 44.023696 36 161.60000610352 0 0 47 1 delete
11:12:37 56.292397 44.023696 36 161.60000610352 0 0 47 1 delete
11:12:28 56.292397 44.023696 29 161.60000610352 0 0 47 1 delete
11:12:16 56.292397 44.023696 42 161.60000610352 0 0 47 1 delete
11:12:04 56.292397 44.023696 73 161.60000610352 0 0 47 1 delete
11:11:51 56.292397 44.023696 90 161.60000610352 0 0 47 1 delete
11:10:54 56.292397 44.023696 35 161.60000610352 0 0 47 1 delete
11:10:30 56.292396 44.023696 17 161.60000610352 0 0 47 1 delete
11:10:19 56.292396 44.023696 9 161.60000610352 0 0 47 1 delete
11:10:08 56.292396 44.023696 13 161.60000610352 0 0 47 1 delete
11:09:56 56.292396 44.023696 16 161.60000610352 0 0 47 1 delete
11:09:45 56.292396 44.023697 19 161.60000610352 0 0 47 1 delete
11:09:34 56.292396 44.023697 28 161.60000610352 0 0 47 1 delete
11:09:22 56.292396 44.023697 23 161.60000610352 0 0 47 1 delete
11:09:11 56.292396 44.023697 22 161.60000610352 0 0 47 1 delete
11:08:47 56.292396 44.023697 39 161.60000610352 0 0 47 1 delete
11:08:37 56.292396 44.023697 21 161.60000610352 0 0 47 1 delete
11:08:26 56.292396 44.023697 20 161.60000610352 0 0 47 1 delete
11:08:15 56.292395 44.023697 28 161.60000610352 0 0 47 1 delete
11:08:04 56.292395 44.023697 21 161.60000610352 0 0 47 1 delete
11:07:53 56.292395 44.023697 41 161.60000610352 0 0 47 1 delete
11:07:18 56.292395 44.023697 16 161.60000610352 0 0 47 1 delete
11:07:07 56.292395 44.023697 10 161.60000610352 0 0 47 1 delete
11:06:55 56.292395 44.023697 9 161.60000610352 0 0 47 1 delete
11:06:44 56.292395 44.023698 15 161.60000610352 0 0 47 1 delete
11:06:32 56.292395 44.023698 31 161.60000610352 0 0 47 1 delete
11:06:21 56.292394 44.023698 24 161.60000610352 0 0 47 1 delete
11:06:10 56.292394 44.023698 34 161.60000610352 0 0 47 1 delete
11:05:23 56.292393 44.023698 87 161.60000610352 0 0 47 1 delete
11:05:11 56.292393 44.023698 55 161.60000610352 0 0 47 1 delete
11:05:02 56.292393 44.023699 30 161.60000610352 0 0 47 1 delete
11:04:50 56.292393 44.023699 17 161.60000610352 0 0 47 1 delete
11:04:40 56.292393 44.023699 16 161.60000610352 0 0 47 1 delete